createdAt,value
2019-04-23T00:02:53.443Z,37.11
2019-04-23T00:05:30.183Z,37.35
2019-04-23T00:10:27.028Z,37.43
2019-04-23T00:12:53.084Z,37.20
2019-04-23T00:15:28.915Z,37.74
2019-04-23T00:18:09.725Z,38.28
2019-04-23T00:20:39.263Z,37.62
2019-04-23T00:23:22.506Z,37.53
2019-04-23T00:25:51.086Z,37.64
2019-04-23T00:28:20.564Z,37.87
2019-04-23T00:33:25.113Z,37.90
2019-04-23T00:35:59.696Z,38.06
2019-04-23T00:38:36.569Z,38.61
2019-04-23T00:41:02.917Z,38.61
2019-04-23T00:43:32.611Z,38.61
2019-04-23T00:45:59.664Z,38.91
2019-04-23T00:48:45.598Z,38.98
2019-04-23T00:51:02.189Z,39.02
2019-04-23T00:53:40.162Z,39.47
2019-04-23T00:56:32.415Z,39.49
2019-04-23T00:58:52.860Z,39.78
2019-04-23T01:01:18.283Z,39.57
2019-04-23T01:03:55.105Z,39.56
2019-04-23T01:08:51.768Z,40.16
2019-04-23T01:14:08.311Z,39.89
2019-04-23T01:16:20.948Z,39.73
2019-04-23T01:19:24.516Z,40.37
2019-04-23T01:21:15.840Z,40.10
2019-04-23T01:24:02.748Z,40.58
2019-04-23T01:27:12.159Z,40.41
2019-04-23T01:29:32.054Z,40.92
2019-04-23T01:31:57.343Z,40.94
2019-04-23T01:34:38.956Z,41.15
2019-04-23T01:37:01.083Z,40.91
2019-04-23T01:39:39.716Z,40.70
2019-04-23T01:42:22.867Z,40.83
2019-04-23T01:47:19.853Z,40.53
2019-04-23T01:49:54.004Z,41.32
2019-04-23T01:52:24.904Z,40.99
2019-04-23T01:54:52.254Z,40.92
2019-04-23T01:57:22.879Z,40.90
2019-04-23T01:59:58.432Z,40.69
2019-04-23T02:02:27.625Z,41.07
2019-04-23T02:05:04.152Z,41.00
2019-04-23T02:07:38.810Z,41.30
2019-04-23T02:10:11.626Z,41.14
2019-04-23T02:12:42.002Z,40.81
2019-04-23T02:15:13.804Z,41.43
2019-04-23T02:20:21.867Z,41.28
2019-04-23T02:23:01.371Z,40.93
2019-04-23T02:25:44.046Z,40.96
2019-04-23T02:28:06.120Z,41.01
2019-04-23T02:43:16.156Z,41.25
2019-04-23T02:45:56.960Z,40.86
2019-04-23T02:50:47.937Z,40.68
2019-04-23T02:53:44.834Z,40.83
2019-04-23T02:56:15.160Z,40.82
2019-04-23T02:58:45.979Z,40.82
2019-04-23T03:01:15.292Z,41.05
2019-04-23T03:03:38.298Z,40.97
2019-04-23T03:06:10.193Z,40.72
2019-04-23T03:08:46.653Z,41.24
2019-04-23T03:11:18.363Z,41.18
2019-04-23T03:13:51.044Z,41.27
2019-04-23T03:16:29.479Z,41.39
2019-04-23T03:19:02.939Z,41.44
2019-04-23T03:21:51.839Z,41.45
2019-04-23T03:27:08.085Z,41.42
2019-04-23T03:29:35.585Z,41.45
2019-04-23T03:35:12.324Z,41.29
2019-04-23T03:39:40.392Z,41.40
2019-04-23T03:41:59.640Z,41.91
2019-04-23T03:44:45.312Z,41.74
2019-04-23T03:47:11.461Z,41.60
2019-04-23T03:49:43.895Z,41.74
2019-04-23T03:57:20.324Z,41.86
2019-04-23T04:04:44.571Z,41.23
2019-04-23T04:07:53.539Z,41.29
2019-04-23T04:09:51.704Z,41.08
2019-04-23T04:15:14.323Z,40.95
2019-04-23T04:18:06.565Z,40.83
2019-04-23T04:20:15.217Z,40.77
2019-04-23T04:25:17.737Z,40.22
2019-04-23T04:27:53.790Z,40.06
2019-04-23T04:30:20.777Z,39.57
2019-04-23T04:32:58.711Z,39.07
2019-04-23T04:40:33.084Z,37.03
2019-04-23T04:43:11.290Z,36.46
2019-04-23T04:45:47.435Z,35.64
2019-04-23T04:47:55.634Z,33.86
2019-04-23T04:50:24.181Z,32.67
2019-04-23T04:55:41.230Z,32.69
2019-04-23T05:01:01.384Z,32.51
2019-04-23T05:03:22.258Z,33.12
2019-04-23T05:06:05.024Z,33.05
2019-04-23T05:08:21.690Z,34.21
2019-04-23T05:13:41.330Z,33.81
2019-04-23T05:15:51.539Z,33.98
2019-04-23T05:21:07.382Z,33.60
2019-04-23T05:26:23.925Z,33.76
2019-04-23T05:31:27.843Z,32.83
2019-04-23T05:34:14.921Z,32.93
2019-04-23T05:41:36.501Z,31.44
2019-04-23T05:44:15.746Z,30.79
2019-04-23T05:46:43.446Z,30.47
2019-04-23T05:54:18.969Z,30.03
2019-04-23T05:56:54.151Z,29.18
2019-04-23T05:59:23.064Z,28.66
2019-04-23T06:09:30.494Z,26.37
2019-04-23T06:12:04.482Z,26.45
2019-04-23T06:14:40.291Z,25.56
2019-04-23T06:17:17.786Z,25.17
2019-04-23T06:19:33.123Z,23.96
2019-04-23T06:25:08.542Z,23.82
2019-04-23T06:27:22.146Z,22.96
2019-04-23T06:30:04.530Z,22.96
2019-04-23T06:32:29.434Z,22.83
2019-04-23T06:34:54.690Z,21.57
2019-04-23T06:37:39.334Z,20.80
2019-04-23T06:40:03.192Z,20.24
2019-04-23T06:42:37.689Z,19.29
2019-04-23T06:45:14.538Z,20.51
2019-04-23T06:47:37.434Z,22.23
2019-04-23T06:50:03.582Z,21.75
2019-04-23T06:52:41.144Z,21.34
2019-04-23T06:55:25.442Z,22.46
2019-04-23T06:57:48.486Z,20.92
2019-04-23T07:00:21.051Z,21.77
2019-04-23T07:02:54.078Z,19.41
2019-04-23T07:05:28.061Z,17.19
2019-04-23T07:10:30.264Z,15.44
2019-04-23T07:13:01.260Z,17.29
2019-04-23T07:15:40.856Z,14.99
2019-04-23T07:18:00.668Z,12.79
2019-04-23T07:20:30.351Z,15.04
2019-04-23T07:23:04.894Z,16.72
2019-04-23T07:25:50.023Z,15.08
2019-04-23T07:28:09.436Z,20.59
2019-04-23T07:30:33.165Z,20.96
2019-04-23T07:33:11.853Z,21.91
2019-04-23T07:35:45.953Z,20.29
2019-04-23T07:38:44.236Z,22.10
2019-04-23T07:41:23.714Z,21.46
2019-04-23T07:46:54.760Z,21.75
2019-04-23T07:49:15.112Z,21.92
2019-04-23T07:52:00.792Z,21.92
2019-04-23T07:59:41.437Z,24.62
2019-04-23T08:02:12.857Z,22.27
2019-04-23T08:04:42.624Z,23.25
2019-04-23T08:07:14.619Z,23.75
2019-04-23T08:09:51.418Z,22.09
2019-04-23T08:12:19.198Z,24.19
2019-04-23T08:14:49.682Z,23.90
2019-04-23T08:17:17.542Z,22.50
2019-04-23T08:19:54.162Z,22.93
2019-04-23T08:25:03.298Z,23.63
2019-04-23T08:27:42.062Z,21.23
2019-04-23T08:30:09.852Z,23.96
2019-04-23T08:32:49.247Z,23.96
2019-04-23T08:35:23.236Z,25.25
2019-04-23T08:38:07.887Z,24.88
2019-04-23T08:40:28.456Z,25.80
2019-04-23T08:42:52.749Z,24.27
2019-04-23T08:48:14.252Z,24.82
2019-04-23T08:50:44.029Z,26.38
2019-04-23T08:53:37.398Z,24.94
2019-04-23T08:55:49.885Z,25.62
2019-04-23T08:58:19.071Z,26.03
2019-04-23T09:08:27.294Z,24.58
2019-04-23T09:11:04.670Z,24.58
2019-04-23T09:13:50.179Z,22.34
2019-04-23T09:21:03.474Z,22.38
2019-04-23T09:23:40.894Z,21.86
2019-04-23T09:26:22.144Z,23.42
2019-04-23T09:28:45.672Z,22.67
2019-04-23T09:32:00.532Z,22.54
2019-04-23T09:34:17.205Z,23.06
2019-04-23T09:39:35.745Z,21.00
2019-04-23T09:42:32.272Z,21.52
2019-04-23T09:47:50.762Z,22.21
2019-04-23T09:50:15.551Z,21.89
2019-04-23T09:53:01.434Z,23.20
2019-04-23T09:57:51.447Z,22.89
2019-04-23T10:00:38.083Z,21.70
2019-04-23T10:02:44.804Z,22.29
2019-04-23T10:05:11.154Z,23.21
2019-04-23T10:07:46.196Z,22.20
2019-04-23T10:10:03.801Z,23.64
2019-04-23T10:12:35.631Z,23.93
2019-04-23T10:15:19.939Z,23.93
2019-04-23T10:17:44.530Z,25.25
2019-04-23T10:20:14.058Z,26.23
2019-04-23T10:22:44.154Z,25.69
2019-04-23T10:25:15.296Z,25.36
2019-04-23T10:27:45.365Z,26.53
2019-04-23T10:30:17.739Z,25.01
2019-04-23T10:32:47.590Z,25.36
2019-04-23T10:35:28.595Z,25.56
2019-04-23T10:37:56.869Z,25.80
2019-04-23T10:40:28.154Z,25.64
2019-04-23T10:42:56.019Z,25.74
2019-04-23T10:45:59.338Z,26.04
2019-04-23T10:49:00.760Z,26.05
2019-04-23T10:52:04.925Z,26.96
2019-04-23T10:56:44.824Z,26.36
2019-04-23T10:59:28.774Z,26.00
2019-04-23T11:02:17.459Z,25.59
2019-04-23T11:04:53.707Z,25.11
2019-04-23T11:09:53.041Z,25.42
2019-04-23T11:12:37.213Z,25.33
2019-04-23T11:15:13.536Z,26.31
2019-04-23T11:17:43.176Z,26.31
2019-04-23T11:25:15.939Z,25.96
2019-04-23T11:30:23.549Z,26.41
2019-04-23T11:35:23.858Z,26.55
2019-04-23T11:38:15.933Z,25.72
2019-04-23T11:40:21.141Z,25.89
2019-04-23T11:45:36.758Z,25.96
2019-04-23T11:48:14.708Z,26.20
2019-04-23T11:51:00.573Z,25.91
2019-04-23T11:53:10.550Z,25.48
2019-04-23T11:55:41.204Z,24.46
2019-04-23T11:58:07.532Z,25.09
2019-04-23T12:00:51.117Z,25.84
2019-04-23T12:03:03.027Z,25.84
2019-04-23T12:06:07.844Z,25.16
2019-04-23T12:08:41.429Z,25.24
2019-04-23T12:11:39.508Z,26.49
2019-04-23T12:13:56.632Z,26.49
2019-04-23T12:16:23.904Z,26.32
2019-04-23T12:19:25.398Z,25.80
2019-04-23T12:21:28.227Z,26.70
2019-04-23T12:24:09.679Z,26.21
2019-04-23T12:26:35.790Z,26.21
2019-04-23T12:28:57.143Z,25.59
2019-04-23T12:31:40.106Z,25.59
2019-04-23T12:34:09.640Z,24.85
2019-04-23T12:36:45.597Z,25.56
2019-04-23T12:39:27.589Z,25.54
2019-04-23T12:42:05.772Z,24.55
2019-04-23T12:44:30.709Z,25.23
2019-04-23T12:49:53.392Z,25.64
2019-04-23T12:52:12.179Z,24.84
2019-04-23T12:54:58.832Z,25.36
2019-04-23T12:59:44.608Z,24.99
2019-04-23T13:02:25.730Z,24.88
2019-04-23T13:04:54.986Z,24.93
2019-04-23T13:07:33.497Z,25.13
2019-04-23T13:10:10.175Z,24.67
2019-04-23T13:12:42.938Z,24.44
2019-04-23T13:15:10.855Z,24.17
2019-04-23T13:17:46.416Z,25.23
2019-04-23T13:22:48.943Z,24.94
2019-04-23T13:25:18.115Z,24.35
2019-04-23T13:30:35.561Z,25.12
2019-04-23T13:32:59.066Z,25.34
2019-04-23T13:38:08.905Z,26.23
2019-04-23T13:40:39.343Z,26.42
2019-04-23T13:43:12.223Z,26.52
2019-04-23T13:45:58.942Z,26.58
2019-04-23T13:55:54.206Z,26.15
2019-04-23T13:58:34.130Z,26.83
2019-04-23T14:01:09.071Z,27.02
2019-04-23T14:06:16.548Z,27.34
2019-04-23T14:16:34.320Z,26.87
2019-04-23T14:26:32.600Z,26.34
2019-04-23T14:29:19.103Z,26.46
2019-04-23T14:31:23.101Z,26.87
2019-04-23T14:36:37.693Z,26.49
2019-04-23T14:39:05.988Z,26.49
2019-04-23T14:41:32.050Z,27.06
2019-04-23T14:44:25.279Z,26.48
2019-04-23T14:47:03.489Z,26.48
2019-04-23T14:49:40.854Z,26.89
2019-04-23T14:52:09.315Z,26.70
2019-04-23T14:55:17.728Z,26.75
2019-04-23T14:59:37.727Z,28.59
2019-04-23T15:02:19.495Z,28.59
2019-04-23T15:04:54.510Z,29.39
2019-04-23T15:07:31.240Z,29.01
2019-04-23T15:17:41.281Z,28.63
2019-04-23T15:20:17.205Z,28.85
2019-04-23T15:23:05.114Z,29.22
2019-04-23T15:30:20.773Z,30.09
2019-04-23T15:33:09.791Z,30.44
2019-04-23T15:35:47.818Z,30.71
2019-04-23T15:38:26.843Z,30.31
2019-04-23T15:40:42.078Z,30.80
2019-04-23T15:45:53.866Z,30.43
2019-04-23T15:51:01.461Z,30.65
2019-04-23T15:53:14.325Z,30.38
2019-04-23T15:56:09.111Z,30.64
2019-04-23T16:01:15.414Z,30.83
2019-04-23T16:03:14.574Z,30.52
2019-04-23T16:05:44.774Z,30.86
2019-04-23T16:08:55.554Z,31.43
2019-04-23T16:11:29.625Z,31.59
2019-04-23T16:14:04.335Z,31.31
2019-04-23T16:16:28.638Z,31.67
2019-04-23T16:19:07.731Z,31.39
2019-04-23T16:21:47.984Z,32.23
2019-04-23T16:24:13.570Z,32.41
2019-04-23T16:29:27.498Z,32.86
2019-04-23T16:31:46.810Z,32.58
2019-04-23T16:34:23.957Z,33.00
2019-04-23T16:36:54.901Z,33.09
2019-04-23T16:39:21.574Z,33.68
2019-04-23T16:42:01.801Z,33.98
2019-04-23T16:44:38.330Z,34.00
2019-04-23T16:47:12.847Z,33.53
2019-04-23T16:49:33.025Z,34.57
2019-04-23T16:52:07.913Z,34.24
2019-04-23T16:54:42.244Z,34.22
2019-04-23T16:57:21.524Z,34.56
2019-04-23T17:00:01.384Z,34.36
2019-04-23T17:02:16.050Z,34.17
2019-04-23T17:04:47.263Z,34.10
2019-04-23T17:07:29.929Z,34.63
2019-04-23T17:10:00.682Z,34.73
2019-04-23T17:12:17.616Z,34.49
2019-04-23T17:14:57.631Z,35.20
2019-04-23T17:17:18.415Z,34.99
2019-04-23T17:22:31.304Z,35.90
2019-04-23T17:25:15.212Z,35.46
2019-04-23T17:30:26.295Z,36.26
2019-04-23T17:33:07.768Z,36.37
2019-04-23T17:35:40.204Z,36.19
2019-04-23T17:38:27.921Z,36.06
2019-04-23T17:40:50.158Z,36.29
2019-04-23T17:43:26.898Z,36.79
2019-04-23T17:45:46.584Z,38.08
2019-04-23T17:48:20.404Z,38.04
2019-04-23T17:51:05.695Z,37.69
2019-04-23T17:53:32.748Z,37.60
2019-04-23T17:56:26.657Z,37.74
2019-04-23T17:58:52.258Z,37.45
2019-04-23T18:03:50.465Z,37.71
2019-04-23T18:06:34.697Z,38.00
2019-04-23T18:08:49.429Z,38.54
2019-04-23T18:13:57.084Z,38.06
2019-04-23T18:21:44.098Z,38.58
2019-04-23T18:24:27.336Z,38.10
2019-04-23T18:26:51.629Z,37.81
2019-04-23T18:32:16.181Z,38.82
2019-04-23T18:35:07.180Z,38.40
2019-04-23T18:37:24.617Z,38.62
2019-04-23T18:39:48.478Z,38.78
2019-04-23T18:44:55.861Z,39.22
2019-04-23T18:47:37.074Z,39.04
2019-04-23T18:50:02.039Z,38.94
2019-04-23T18:52:41.200Z,38.84
2019-04-23T18:55:04.097Z,38.74
2019-04-23T18:57:44.387Z,39.08
2019-04-23T19:00:39.502Z,39.54
2019-04-23T19:02:58.454Z,38.93
2019-04-23T19:05:34.581Z,39.37
2019-04-23T19:08:23.467Z,39.15
2019-04-23T19:11:02.048Z,39.11
2019-04-23T19:13:39.849Z,39.17
2019-04-23T19:15:52.685Z,39.13
2019-04-23T19:18:36.421Z,38.61
2019-04-23T19:21:13.767Z,39.17
2019-04-23T19:26:27.368Z,39.06
2019-04-23T19:28:56.141Z,38.65
2019-04-23T19:31:26.385Z,38.85
2019-04-23T19:34:14.480Z,39.06
2019-04-23T19:36:49.223Z,39.24
2019-04-23T19:39:17.634Z,39.26
2019-04-23T19:41:56.623Z,38.80
2019-04-23T19:44:20.078Z,39.07
2019-04-23T19:46:54.837Z,38.82
2019-04-23T19:56:58.310Z,38.83
2019-04-23T19:59:39.639Z,39.05
2019-04-23T20:02:00.201Z,39.16
2019-04-23T20:04:42.382Z,39.14
2019-04-23T20:09:51.728Z,39.06
2019-04-23T20:12:29.344Z,39.00
2019-04-23T20:14:52.138Z,38.93
2019-04-23T20:19:48.161Z,38.90
2019-04-23T20:30:21.309Z,39.33
2019-04-23T20:35:15.594Z,38.79
2019-04-23T20:38:17.277Z,38.64
2019-04-23T20:40:31.441Z,39.62
2019-04-23T20:42:52.602Z,39.27
2019-04-23T20:45:36.131Z,39.39
2019-04-23T20:47:57.780Z,39.55
2019-04-23T20:50:26.187Z,39.50
2019-04-23T20:52:59.995Z,39.79
2019-04-23T20:55:47.896Z,39.64
2019-04-23T20:58:13.877Z,39.91
2019-04-23T21:00:59.104Z,39.72
2019-04-23T21:03:39.119Z,39.97
2019-04-23T21:06:04.320Z,39.83
2019-04-23T21:09:00.736Z,39.75
2019-04-23T21:10:58.245Z,40.01
2019-04-23T21:16:08.532Z,40.52
2019-04-23T21:18:44.883Z,40.49
2019-04-23T21:23:51.092Z,40.75
2019-04-23T21:26:08.389Z,40.34
2019-04-23T21:28:54.242Z,41.01
2019-04-23T21:31:19.499Z,41.25
2019-04-23T21:34:05.980Z,41.10
2019-04-23T21:39:12.154Z,41.05
2019-04-23T21:41:52.483Z,41.13
2019-04-23T21:44:11.817Z,41.19
2019-04-23T21:51:53.804Z,41.40
2019-04-23T21:54:20.827Z,41.17
2019-04-23T21:56:54.134Z,41.29
2019-04-23T21:59:27.557Z,41.79
2019-04-23T22:02:09.197Z,41.38
2019-04-23T22:04:43.017Z,41.49
2019-04-23T22:07:07.032Z,41.81
2019-04-23T22:09:46.077Z,41.72
2019-04-23T22:12:19.603Z,41.88
2019-04-23T22:14:57.862Z,41.23
2019-04-23T22:17:18.357Z,42.00
2019-04-23T22:22:28.705Z,41.85
2019-04-23T22:24:54.565Z,41.90
2019-04-23T22:27:27.729Z,41.66
2019-04-23T22:29:49.203Z,41.57
2019-04-23T22:32:33.947Z,41.82
2019-04-23T22:35:00.498Z,41.77
2019-04-23T22:37:29.965Z,42.06
2019-04-23T22:40:04.814Z,42.64
2019-04-23T22:43:07.361Z,42.56
2019-04-23T22:45:08.927Z,42.61
2019-04-23T22:47:47.865Z,42.34
2019-04-23T22:50:14.414Z,42.00
2019-04-23T22:52:48.532Z,42.45
2019-04-23T22:55:15.600Z,42.94
2019-04-23T23:00:16.413Z,42.83
2019-04-23T23:03:06.908Z,42.78
2019-04-23T23:08:11.407Z,43.27
2019-04-23T23:10:36.662Z,42.88
2019-04-23T23:15:49.256Z,42.81
2019-04-23T23:18:19.653Z,43.04
2019-04-23T23:20:57.487Z,43.02
2019-04-23T23:23:21.502Z,43.34
2019-04-23T23:25:54.182Z,43.02
2019-04-23T23:33:43.019Z,43.57
2019-04-23T23:36:38.752Z,43.15
2019-04-23T23:38:51.067Z,43.46
2019-04-23T23:41:19.151Z,43.39
2019-04-23T23:49:03.302Z,43.51
2019-04-23T23:51:30.853Z,43.48
2019-04-23T23:54:03.462Z,43.77
2019-04-23T23:56:30.429Z,43.43
2019-04-23T23:59:04.005Z,44.02
